Time;durP1;ratioP1;P1;durP2;ratioP2;P2;SDS_P1;SDS_P2;PMS_P1;PMS_P2;Temp;Humidity;BMP_temperature;BMP_pressure;BME280_temperature;BME280_humidity;BME280_pressure;Samples;Min_cycle;Max_cycle;Signal;HPM_P1;HPM_P2
2021/11/23 00:00:44;;;;;;;14.65;4.93;;;;;;;3.07;74.88;101964.91;4978992;28;20061;-44
2021/11/23 00:03:12;;;;;;;11.88;4.53;;;;;;;3.08;74.09;101953.84;4981068;28;20542;-44
2021/11/23 00:05:40;;;;;;;10.43;5.00;;;;;;;3.11;74.31;101958.31;4982153;28;20049;-43
2021/11/23 00:08:09;;;;;;;12.20;5.07;;;;;;;3.13;74.00;101955.81;4983116;28;20148;-43
2021/11/23 00:10:37;;;;;;;12.55;5.20;;;;;;;3.12;74.95;101951.47;4979418;28;20110;-45
2021/11/23 00:13:04;;;;;;;11.10;5.10;;;;;;;3.11;74.14;101950.63;4972988;28;20054;-44
2021/11/23 00:15:34;;;;;;;11.18;4.97;;;;;;;3.11;73.77;101944.59;4973704;28;20534;-48
2021/11/23 00:18:04;;;;;;;12.25;4.70;;;;;;;3.14;73.58;101949.91;4997680;28;20046;-45
2021/11/23 00:20:31;;;;;;;13.32;5.22;;;;;;;3.12;73.71;101943.81;4977429;28;20455;-44
2021/11/23 00:22:58;;;;;;;13.60;5.18;;;;;;;3.13;74.22;101943.91;4991224;28;20050;-46
2021/11/23 00:25:26;;;;;;;12.38;4.75;;;;;;;3.13;74.52;101936.22;4977287;28;20061;-47
2021/11/23 00:27:54;;;;;;;15.65;5.22;;;;;;;3.13;73.93;101915.72;4981012;28;20074;-46
2021/11/23 00:30:21;;;;;;;15.02;5.38;;;;;;;3.15;73.76;101905.56;4977989;28;20035;-42
2021/11/23 00:32:48;;;;;;;11.30;4.60;;;;;;;3.14;74.61;101909.81;4977642;28;20050;-42
2021/11/23 00:35:16;;;;;;;15.20;6.00;;;;;;;3.13;74.44;101918.28;4975055;28;20055;-45
2021/11/23 00:37:46;;;;;;;15.63;5.78;;;;;;;3.14;74.01;101914.94;4980969;28;20053;-48
2021/11/23 00:40:14;;;;;;;15.52;6.05;;;;;;;3.14;74.92;101914.06;4978348;28;20104;-47
2021/11/23 00:42:41;;;;;;;15.35;5.72;;;;;;;3.12;73.80;101900.28;4978693;28;20058;-45
2021/11/23 00:45:10;;;;;;;16.08;5.88;;;;;;;3.10;74.62;101896.75;4966904;28;20050;-46
2021/11/23 00:47:38;;;;;;;14.25;6.45;;;;;;;3.04;74.00;101895.59;4974834;28;20112;-45
2021/11/23 00:50:07;;;;;;;13.82;7.10;;;;;;;2.99;73.65;101889.31;4978078;28;20116;-46
2021/11/23 00:52:36;;;;;;;13.15;5.63;;;;;;;2.94;74.78;101888.19;4972320;28;20050;-43
2021/11/23 00:55:05;;;;;;;18.67;6.82;;;;;;;2.90;74.08;101899.03;4980346;28;20120;-46
2021/11/23 00:57:32;;;;;;;12.88;6.65;;;;;;;2.88;73.78;101910.84;4973552;28;20058;-48
2021/11/23 00:59:59;;;;;;;15.35;6.30;;;;;;;2.86;74.28;101917.53;4983796;28;20109;-47
2021/11/23 01:02:26;;;;;;;20.67;6.13;;;;;;;2.85;74.72;101915.78;4977418;28;20491;-46
2021/11/23 01:04:52;;;;;;;14.60;6.40;;;;;;;2.85;74.77;101923.47;4975995;28;20613;-44
2021/11/23 01:07:19;;;;;;;13.15;6.32;;;;;;;2.83;75.27;101921.69;4977476;28;20058;-49
2021/11/23 01:09:45;;;;;;;11.45;5.57;;;;;;;2.83;75.28;101926.81;4979519;28;20126;-47
2021/11/23 01:12:13;;;;;;;14.82;5.80;;;;;;;2.81;74.68;101915.59;4976644;28;20069;-42
2021/11/23 01:14:41;;;;;;;13.80;6.43;;;;;;;2.79;74.03;101914.63;4978437;28;20050;-45
2021/11/23 01:17:14;;;;;;;13.93;5.90;;;;;;;2.79;74.17;101927.44;4980696;28;20050;-44
2021/11/23 01:19:44;;;;;;;14.13;5.68;;;;;;;2.78;74.91;101919.66;4978084;28;20487;-46
2021/11/23 01:22:13;;;;;;;13.07;5.47;;;;;;;2.76;73.74;101916.13;4977575;28;20054;-46
2021/11/23 01:24:42;;;;;;;16.60;6.95;;;;;;;2.75;74.82;101915.25;4978465;28;20055;-43
2021/11/23 01:27:10;;;;;;;13.80;6.75;;;;;;;2.76;74.34;101917.00;4976916;28;21036;-46
2021/11/23 01:29:38;;;;;;;15.63;6.22;;;;;;;2.77;74.89;101913.66;4974392;28;20058;-43
2021/11/23 01:32:05;;;;;;;16.60;6.03;;;;;;;2.77;74.87;101908.53;4981459;28;20530;-45
2021/11/23 01:34:32;;;;;;;13.43;6.50;;;;;;;2.76;73.73;101919.56;4975631;28;20051;-45
2021/11/23 01:36:59;;;;;;;17.45;6.40;;;;;;;2.74;75.05;101910.03;4980705;28;20043;-43
2021/11/23 01:39:27;;;;;;;13.43;4.95;;;;;;;2.67;74.21;101911.34;4980622;28;20092;-49
2021/11/23 01:41:54;;;;;;;16.25;5.22;;;;;;;2.63;73.84;101899.16;4980502;28;20097;-44
2021/11/23 01:44:20;;;;;;;15.07;5.82;;;;;;;2.61;75.22;101904.19;4975019;28;20105;-44
2021/11/23 01:46:47;;;;;;;13.88;5.85;;;;;;;2.61;74.72;101908.41;4978986;28;20046;-45
2021/11/23 01:49:14;;;;;;;15.45;6.30;;;;;;;2.60;73.91;101910.06;4976814;28;20050;-44
2021/11/23 01:51:42;;;;;;;16.27;6.03;;;;;;;2.61;73.89;101908.41;4978962;28;20050;-44
2021/11/23 01:54:09;;;;;;;13.90;5.93;;;;;;;2.62;74.97;101902.50;4979207;28;20057;-44
2021/11/23 01:56:36;;;;;;;12.38;5.53;;;;;;;2.62;73.94;101902.50;4978695;28;20125;-49
2021/11/23 01:59:03;;;;;;;14.90;5.57;;;;;;;2.63;74.75;101899.16;4974056;28;20105;-44
2021/11/23 02:01:30;;;;;;;15.68;6.05;;;;;;;2.64;75.22;101903.50;4979609;28;20046;-43
2021/11/23 02:03:57;;;;;;;14.57;6.10;;;;;;;2.66;74.48;101904.44;4980261;28;20043;-47
2021/11/23 02:06:24;;;;;;;19.45;6.95;;;;;;;2.66;74.03;101909.56;4983326;28;20588;-47
2021/11/23 02:08:51;;;;;;;16.25;6.20;;;;;;;2.65;75.22;101903.59;4979138;28;20105;-49
2021/11/23 02:11:18;;;;;;;20.40;6.50;;;;;;;2.64;74.52;101890.69;4979473;28;20050;-42
2021/11/23 02:13:44;;;;;;;14.10;6.47;;;;;;;2.64;75.51;101898.38;4976953;28;20534;-43
2021/11/23 02:16:11;;;;;;;18.55;6.20;;;;;;;2.65;74.94;101898.47;4976425;28;20719;-45
2021/11/23 02:18:38;;;;;;;14.77;6.55;;;;;;;2.66;75.17;101899.31;4975552;28;20046;-44
2021/11/23 02:21:05;;;;;;;16.05;6.05;;;;;;;2.67;75.04;101906.25;4981833;28;20051;-45
2021/11/23 02:23:34;;;;;;;17.67;6.40;;;;;;;2.69;74.33;101899.53;4975176;28;20054;-46
2021/11/23 02:26:02;;;;;;;17.90;6.72;;;;;;;2.71;74.23;101887.72;4981069;28;20058;-42
2021/11/23 02:28:28;;;;;;;14.32;5.85;;;;;;;2.73;73.92;101886.09;4974297;28;20053;-43
2021/11/23 02:30:58;;;;;;;15.93;7.28;;;;;;;2.75;75.31;101884.53;4977110;28;20097;-47
2021/11/23 02:33:27;;;;;;;20.20;6.68;;;;;;;2.74;75.25;101880.22;4982119;28;20177;-44
2021/11/23 02:36:00;;;;;;;18.10;6.05;;;;;;;2.74;74.04;101867.44;4977469;28;20081;-42
2021/11/23 02:38:28;;;;;;;13.73;6.25;;;;;;;2.73;74.46;101864.78;4978980;28;20109;-44
2021/11/23 02:40:55;;;;;;;17.38;7.00;;;;;;;2.72;75.34;101858.75;4972796;28;20050;-43
2021/11/23 02:43:22;;;;;;;14.35;6.75;;;;;;;2.73;75.57;101857.97;4978797;28;20058;-44
2021/11/23 02:45:49;;;;;;;12.95;6.10;;;;;;;2.71;75.55;101857.00;4972769;28;20058;-49
2021/11/23 02:48:16;;;;;;;21.70;6.78;;;;;;;2.70;74.82;101850.09;4979166;28;20050;-44
2021/11/23 02:50:46;;;;;;;20.17;7.38;;;;;;;2.72;75.69;101856.22;4974310;28;20545;-44
2021/11/23 02:53:14;;;;;;;19.20;6.63;;;;;;;2.72;74.86;101847.63;4975454;28;20112;-46
2021/11/23 02:55:41;;;;;;;19.50;6.43;;;;;;;2.72;75.13;101847.63;4977416;28;20112;-46
2021/11/23 02:58:10;;;;;;;13.38;6.35;;;;;;;2.70;75.95;101850.09;4975765;28;20053;-49
2021/11/23 03:00:38;;;;;;;18.48;6.80;;;;;;;2.74;74.82;101846.97;4978313;28;20578;-43
2021/11/23 03:03:06;;;;;;;13.90;5.70;;;;;;;2.73;74.76;101845.16;4973685;28;20529;-42
2021/11/23 03:05:32;;;;;;;14.60;6.10;;;;;;;2.76;76.26;101844.47;4977367;28;20503;-42
2021/11/23 03:07:59;;;;;;;13.07;6.18;;;;;;;2.77;75.32;101842.00;4977383;28;20053;-48
2021/11/23 03:10:30;;;;;;;14.82;7.22;;;;;;;2.79;74.82;101834.41;4978659;28;20112;-45
2021/11/23 03:12:57;;;;;;;12.85;6.03;;;;;;;2.81;75.52;101832.84;4974671;28;20468;-48
2021/11/23 03:15:26;;;;;;;16.13;6.97;;;;;;;2.84;75.59;101830.47;4976924;28;20433;-48
2021/11/23 03:17:53;;;;;;;15.55;6.90;;;;;;;2.85;75.19;101828.75;4976244;28;20058;-45
2021/11/23 03:20:22;;;;;;;12.68;6.32;;;;;;;2.88;74.93;101823.81;4978969;28;20078;-44
2021/11/23 03:22:49;;;;;;;13.07;6.10;;;;;;;2.89;76.13;101826.47;4982013;28;20051;-44
2021/11/23 03:25:17;;;;;;;16.05;6.85;;;;;;;2.91;75.25;101834.25;4977923;28;20120;-44
2021/11/23 03:27:45;;;;;;;14.07;5.25;;;;;;;2.92;74.86;101831.78;4983424;28;20054;-50
2021/11/23 03:30:14;;;;;;;14.98;6.90;;;;;;;2.94;74.87;101831.88;4981463;28;20427;-43
2021/11/23 03:32:41;;;;;;;16.38;7.95;;;;;;;2.94;75.29;101814.81;4977334;28;20093;-45
2021/11/23 03:35:09;;;;;;;19.10;7.25;;;;;;;2.95;75.51;101813.16;4979608;28;20073;-44
2021/11/23 03:37:36;;;;;;;16.77;7.63;;;;;;;2.97;75.12;101816.66;4978494;28;20050;-48
2021/11/23 03:40:04;;;;;;;16.02;7.20;;;;;;;2.98;75.63;101808.22;4976056;28;20051;-52
2021/11/23 03:42:31;;;;;;;18.40;7.55;;;;;;;2.98;75.65;101808.22;4977777;28;20046;-45
2021/11/23 03:44:59;;;;;;;17.33;7.70;;;;;;;2.99;75.23;101807.41;4980384;28;20045;-45
2021/11/23 03:47:29;;;;;;;14.27;7.13;;;;;;;3.00;75.94;101814.28;4972610;28;20047;-43
2021/11/23 03:49:57;;;;;;;15.30;7.35;;;;;;;3.01;75.26;101815.19;4983573;28;20403;-45
2021/11/23 03:52:24;;;;;;;19.17;8.18;;;;;;;3.01;75.44;101810.06;4981921;28;20106;-43
2021/11/23 03:54:52;;;;;;;18.10;7.80;;;;;;;3.01;75.64;101825.41;4979482;28;20113;-44
2021/11/23 03:57:18;;;;;;;15.60;7.75;;;;;;;2.99;75.77;101816.75;4977501;28;20078;-44
2021/11/23 03:59:48;;;;;;;15.40;6.70;;;;;;;2.97;74.79;101814.09;4977564;28;20113;-47
2021/11/23 04:02:17;;;;;;;15.13;7.03;;;;;;;2.94;75.96;101824.19;4979128;28;20721;-46
2021/11/23 04:04:44;;;;;;;13.02;6.60;;;;;;;2.91;74.49;101816.34;4980941;28;20050;-49
2021/11/23 04:07:12;;;;;;;17.35;6.47;;;;;;;2.89;75.63;101817.91;4979644;28;20451;-48
2021/11/23 04:09:38;;;;;;;17.25;7.10;;;;;;;2.87;75.65;101819.50;4993786;28;20053;-45
2021/11/23 04:12:06;;;;;;;17.27;6.75;;;;;;;2.85;75.46;101813.41;4980783;28;20101;-45
2021/11/23 04:14:33;;;;;;;17.08;7.30;;;;;;;2.81;75.02;101813.22;4977898;28;20050;-44
2021/11/23 04:17:00;;;;;;;14.68;6.85;;;;;;;2.80;75.38;101815.69;4978387;28;20055;-43
2021/11/23 04:19:28;;;;;;;16.65;6.90;;;;;;;2.75;74.51;101812.88;4976734;28;20055;-45
2021/11/23 04:21:57;;;;;;;12.07;6.18;;;;;;;2.73;74.75;101799.09;4976420;28;20485;-47
2021/11/23 04:24:24;;;;;;;13.10;6.53;;;;;;;2.73;75.54;101803.38;4979728;28;20042;-46
2021/11/23 04:26:50;;;;;;;19.10;7.28;;;;;;;2.72;75.66;101792.22;4978653;28;20055;-46
2021/11/23 04:29:17;;;;;;;14.15;5.70;;;;;;;2.72;75.11;101794.78;4976653;28;20415;-43
2021/11/23 04:31:44;;;;;;;15.35;6.53;;;;;;;2.70;76.13;101804.94;4980247;28;20096;-44
2021/11/23 04:34:10;;;;;;;15.90;6.95;;;;;;;2.69;74.88;101802.28;4976198;28;20442;-47
2021/11/23 04:36:37;;;;;;;16.08;6.05;;;;;;;2.67;75.73;101803.88;4977886;28;20059;-44
2021/11/23 04:39:04;;;;;;;16.27;6.28;;;;;;;2.66;74.73;101796.97;4976775;28;20054;-48
2021/11/23 04:41:34;;;;;;;;;;;;;;;2.58;76.13;101799.13;4985216;28;20104;-46
2021/11/23 04:44:01;;;;;;;13.77;6.03;;;;;;;2.61;75.75;101798.41;4980067;28;19980;-43
2021/11/23 04:46:28;;;;;;;15.23;6.72;;;;;;;2.60;75.04;101796.66;4974949;28;20050;-44
2021/11/23 04:48:54;;;;;;;15.60;6.78;;;;;;;2.60;75.60;101802.63;4978045;28;20051;-44
2021/11/23 04:51:22;;;;;;;18.58;7.03;;;;;;;2.59;75.91;101805.09;4981458;28;20465;-46
2021/11/23 04:53:49;;;;;;;15.60;6.60;;;;;;;2.57;74.62;101795.66;4978135;28;20051;-47
2021/11/23 04:56:16;;;;;;;14.70;6.65;;;;;;;2.57;74.62;101793.09;4982143;28;20442;-43
2021/11/23 04:58:43;;;;;;;15.20;6.70;;;;;;;2.57;76.07;101793.09;4976696;28;20120;-44
2021/11/23 05:01:10;;;;;;;19.20;7.88;;;;;;;2.57;75.19;101805.88;4979582;28;21712;-43
2021/11/23 05:03:37;;;;;;;15.90;6.50;;;;;;;2.59;74.82;101807.66;4975915;28;20058;-41
2021/11/23 05:06:04;;;;;;;15.95;7.57;;;;;;;2.60;75.62;101797.50;4978558;28;20053;-45
2021/11/23 05:08:31;;;;;;;13.90;7.00;;;;;;;2.61;75.42;101800.97;4978108;28;20101;-43
2021/11/23 05:10:58;;;;;;;17.30;6.82;;;;;;;2.63;75.93;101791.72;4976219;28;20039;-43
2021/11/23 05:13:24;;;;;;;19.52;6.82;;;;;;;2.67;74.74;101798.78;4981362;28;20055;-42
2021/11/23 05:15:51;;;;;;;15.55;7.45;;;;;;;2.69;75.58;101798.06;4979125;28;20050;-48
2021/11/23 05:18:18;;;;;;;17.98;7.03;;;;;;;2.70;75.22;101797.25;4979754;28;20043;-46
2021/11/23 05:20:44;;;;;;;15.68;7.00;;;;;;;2.72;74.81;101802.47;4979501;28;20042;-45
2021/11/23 05:23:11;;;;;;;16.15;7.10;;;;;;;2.74;75.23;101795.78;4975722;28;20043;-49
2021/11/23 05:25:37;;;;;;;14.10;5.70;;;;;;;2.73;76.86;101788.00;4978223;28;20174;-47
2021/11/23 05:28:04;;;;;;;14.27;5.05;;;;;;;2.72;77.55;101796.44;4978108;28;20094;-44
2021/11/23 05:30:30;;;;;;;15.18;6.55;;;;;;;2.74;76.17;101785.53;4978939;28;20085;-45
2021/11/23 05:32:57;;;;;;;13.18;5.93;;;;;;;2.76;76.01;101788.16;4979464;28;20553;-50
2021/11/23 05:35:24;;;;;;;12.88;6.32;;;;;;;2.77;77.40;101784.84;4977929;28;20104;-49
2021/11/23 05:37:50;;;;;;;12.63;6.20;;;;;;;2.79;77.00;101790.91;4975270;28;20047;-45
2021/11/23 05:40:17;;;;;;;16.02;7.00;;;;;;;2.79;76.69;101789.25;4982542;28;20050;-44
2021/11/23 05:42:43;;;;;;;15.38;5.72;;;;;;;2.80;76.75;101788.44;4977103;28;20046;-46
2021/11/23 05:45:12;;;;;;;14.35;6.35;;;;;;;2.80;76.21;101787.53;4977895;28;20054;-44
2021/11/23 05:47:40;;;;;;;14.70;6.43;;;;;;;2.82;76.35;101791.97;4974684;28;20140;-46
2021/11/23 05:50:08;;;;;;;13.07;6.63;;;;;;;2.83;76.92;101786.06;4974774;28;20058;-48
2021/11/23 05:52:35;;;;;;;15.73;6.60;;;;;;;2.83;75.92;101783.50;4978159;28;20108;-42
2021/11/23 05:55:03;;;;;;;17.60;6.90;;;;;;;2.82;76.32;101784.31;4980025;28;20046;-46
2021/11/23 05:57:29;;;;;;;16.50;6.90;;;;;;;2.81;77.57;101784.22;4979145;28;20050;-45
2021/11/23 05:59:56;;;;;;;17.42;7.25;;;;;;;2.80;76.20;101785.88;4980097;28;20112;-48
2021/11/23 06:02:23;;;;;;;11.02;6.30;;;;;;;2.79;77.52;101786.69;4975340;28;20517;-45
2021/11/23 06:04:49;;;;;;;15.93;7.38;;;;;;;2.78;77.04;101791.72;4975287;28;20049;-43
2021/11/23 06:07:16;;;;;;;12.40;6.15;;;;;;;2.75;77.73;101792.41;4974099;28;20101;-45
2021/11/23 06:09:42;;;;;;;16.23;6.57;;;;;;;2.75;77.02;101782.19;4974502;28;20046;-47
2021/11/23 06:12:09;;;;;;;17.85;7.13;;;;;;;2.73;77.94;101782.91;4973754;28;20045;-45
2021/11/23 06:14:36;;;;;;;16.00;7.13;;;;;;;2.71;78.04;101780.25;4980410;28;20711;-44
2021/11/23 06:17:05;;;;;;;13.80;6.20;;;;;;;2.71;76.88;101775.13;4976404;28;20054;-46
2021/11/23 06:19:31;;;;;;;15.10;6.93;;;;;;;2.67;76.87;101778.31;4976293;28;20080;-45
2021/11/23 06:21:58;;;;;;;14.77;6.40;;;;;;;2.68;76.94;101780.06;4972571;28;20050;-46
2021/11/23 06:24:24;;;;;;;15.43;7.60;;;;;;;2.65;78.04;101779.88;4975696;28;20549;-48
2021/11/23 06:26:51;;;;;;;13.43;6.85;;;;;;;2.63;77.97;101782.34;4973421;28;20042;-51
2021/11/23 06:29:18;;;;;;;16.85;6.68;;;;;;;2.61;77.28;101777.94;4973346;28;21124;-44
2021/11/23 06:31:44;;;;;;;19.55;7.25;;;;;;;2.63;77.84;101789.16;4976006;28;20493;-45
2021/11/23 06:34:11;;;;;;;16.75;7.00;;;;;;;2.61;76.95;101788.16;4976491;28;20051;-46
2021/11/23 06:36:37;;;;;;;16.42;6.80;;;;;;;2.60;77.28;101786.41;4971581;28;20115;-43
2021/11/23 06:39:05;;;;;;;18.80;7.57;;;;;;;2.58;78.22;101783.75;4976578;28;20062;-45
2021/11/23 06:41:33;;;;;;;16.52;6.63;;;;;;;2.59;76.81;101794.84;4976811;28;20046;-45
2021/11/23 06:44:02;;;;;;;18.23;7.97;;;;;;;2.60;77.68;101796.66;4975191;28;20054;-43
2021/11/23 06:46:30;;;;;;;16.73;6.72;;;;;;;2.59;77.83;101794.84;4979541;28;20046;-44
2021/11/23 06:48:58;;;;;;;17.50;7.97;;;;;;;2.56;78.05;101793.91;4976119;28;20050;-47
2021/11/23 06:51:25;;;;;;;16.85;7.47;;;;;;;2.55;77.46;101804.94;4981076;28;20093;-46
2021/11/23 06:53:55;;;;;;;19.42;8.25;;;;;;;2.54;77.23;101803.16;4978786;28;20042;-48
2021/11/23 06:56:23;;;;;;;20.73;7.95;;;;;;;2.54;76.63;101809.97;4979248;28;20710;-45
2021/11/23 06:58:50;;;;;;;21.58;8.65;;;;;;;2.53;77.98;101810.75;4973853;28;20078;-44
2021/11/23 07:01:17;;;;;;;17.08;7.35;;;;;;;2.52;77.23;101809.88;4969892;28;20051;-46
2021/11/23 07:03:44;;;;;;;20.77;8.00;;;;;;;2.50;78.17;101808.00;4981952;28;20046;-45
2021/11/23 07:06:11;;;;;;;21.20;8.10;;;;;;;2.49;76.92;101812.25;4970454;28;20057;-49
2021/11/23 07:08:38;;;;;;;19.20;8.43;;;;;;;2.48;78.08;101813.03;4978812;28;20115;-44
2021/11/23 07:11:06;;;;;;;18.13;8.70;;;;;;;2.47;77.54;101821.50;4970487;28;20067;-44
2021/11/23 07:13:34;;;;;;;23.13;9.32;;;;;;;2.48;77.77;101824.94;4971376;28;20105;-51
2021/11/23 07:16:02;;;;;;;17.63;8.93;;;;;;;2.47;76.71;101821.50;4973572;28;20054;-48
2021/11/23 07:18:28;;;;;;;19.02;8.30;;;;;;;2.46;76.66;101829.09;4973634;28;20101;-46
2021/11/23 07:20:55;;;;;;;23.38;8.40;;;;;;;2.46;76.93;101824.84;4970491;28;20117;-46
2021/11/23 07:23:27;;;;;;;21.95;8.70;;;;;;;2.48;77.26;101828.38;4977623;28;20050;-44
2021/11/23 07:25:54;;;;;;;16.63;8.25;;;;;;;2.48;76.98;101825.81;4971806;28;20046;-45
2021/11/23 07:28:21;;;;;;;21.00;8.30;;;;;;;2.51;77.76;101838.81;4975190;28;20101;-45
2021/11/23 07:30:48;;;;;;;17.00;7.53;;;;;;;2.52;77.05;101834.56;4967218;28;20074;-44
2021/11/23 07:33:15;;;;;;;18.08;7.20;;;;;;;2.53;76.71;101844.88;4970141;28;20219;-49
2021/11/23 07:35:41;;;;;;;19.02;8.10;;;;;;;2.53;76.79;101839.75;4972233;28;21866;-43
2021/11/23 07:38:08;;;;;;;17.98;7.45;;;;;;;2.55;77.18;101839.84;4974978;28;20113;-50
2021/11/23 07:40:35;;;;;;;21.98;8.23;;;;;;;2.55;77.33;101835.63;4976976;28;20047;-43
2021/11/23 07:43:01;;;;;;;16.60;6.30;;;;;;;2.57;77.31;101834.03;4976893;28;20098;-42
2021/11/23 07:45:38;;;;;;;16.88;6.80;;;;;;;2.54;78.66;101818.50;4992109;28;20873;-46
2021/11/23 07:48:05;;;;;;;15.57;7.60;;;;;;;2.54;78.42;101833.84;4973644;28;20173;-51
2021/11/23 07:50:32;;;;;;;19.17;7.57;;;;;;;2.56;78.05;101832.28;4973159;28;20117;-47
2021/11/23 07:52:59;;;;;;;15.73;7.60;;;;;;;2.57;77.84;101834.03;4973965;28;20081;-41
2021/11/23 07:55:25;;;;;;;17.95;8.02;;;;;;;2.61;77.88;101834.22;4976030;28;20104;-43
2021/11/23 07:57:52;;;;;;;19.25;7.82;;;;;;;2.63;76.70;101838.63;4974225;28;20093;-44
2021/11/23 08:00:22;;;;;;;21.15;7.90;;;;;;;2.65;76.88;101851.50;4978798;28;20058;-45
2021/11/23 08:02:49;;;;;;;14.90;6.45;;;;;;;2.72;76.84;101848.53;4975222;28;20050;-48
2021/11/23 08:05:16;;;;;;;13.07;6.88;;;;;;;2.92;78.55;101843.69;4983939;28;20053;-45
2021/11/23 08:07:42;;;;;;;13.60;6.88;;;;;;;3.19;78.43;101841.81;4981289;28;20070;-44
2021/11/23 08:10:09;;;;;;;17.33;7.25;;;;;;;3.47;77.17;101847.59;4982257;28;20120;-43
2021/11/23 08:12:36;;;;;;;17.42;8.23;;;;;;;3.78;77.21;101853.53;4974177;28;20038;-46
2021/11/23 08:15:04;;;;;;;18.70;8.90;;;;;;;4.09;77.34;101852.63;4979795;28;20691;-46
2021/11/23 08:17:30;;;;;;;19.50;9.77;;;;;;;4.54;76.89;101854.03;4979047;28;20051;-45
2021/11/23 08:19:58;;;;;;;15.18;7.80;;;;;;;5.00;76.30;101852.94;4977694;28;20058;-44
2021/11/23 08:22:24;;;;;;;16.95;8.05;;;;;;;5.55;74.94;101856.41;4975680;28;20054;-47
2021/11/23 08:24:51;;;;;;;15.82;7.78;;;;;;;6.08;74.45;101861.38;4976552;28;20061;-46
2021/11/23 08:27:18;;;;;;;14.77;7.03;;;;;;;6.60;73.59;101854.22;4978245;28;20054;-48
2021/11/23 08:29:44;;;;;;;12.88;7.50;;;;;;;7.04;73.63;101856.00;4974882;28;20051;-49
2021/11/23 08:32:11;;;;;;;13.55;7.00;;;;;;;7.52;72.56;101863.06;4972854;28;20499;-50
2021/11/23 08:34:38;;;;;;;11.77;7.18;;;;;;;8.09;72.54;101868.63;4974699;28;20686;-47
2021/11/23 08:37:05;;;;;;;15.05;6.85;;;;;;;8.76;72.26;101867.53;4984658;28;20042;-44
2021/11/23 08:39:32;;;;;;;9.18;5.75;;;;;;;9.36;69.91;101877.25;4976433;28;20054;-49
2021/11/23 08:41:59;;;;;;;11.10;5.68;;;;;;;9.88;68.30;101871.94;4982457;28;20038;-47
2021/11/23 08:44:25;;;;;;;11.50;5.88;;;;;;;10.34;67.52;101875.78;4978837;28;20050;-46
2021/11/23 08:46:52;;;;;;;10.20;5.95;;;;;;;10.49;66.84;101868.47;4984844;28;20046;-44
2021/11/23 08:49:19;;;;;;;12.93;5.70;;;;;;;10.33;66.83;101874.06;4981728;28;20093;-43
2021/11/23 08:51:46;;;;;;;12.25;5.90;;;;;;;9.97;65.94;101876.50;4979350;28;20042;-50
2021/11/23 08:54:12;;;;;;;17.35;6.20;;;;;;;9.76;66.98;101882.78;4977226;28;20491;-45
2021/11/23 08:56:43;;;;;;;11.50;5.35;;;;;;;10.16;67.56;101882.19;4980448;28;20093;-48
2021/11/23 08:59:13;;;;;;;11.77;6.28;;;;;;;10.89;67.69;101886.78;4980274;28;20062;-48
2021/11/23 09:01:40;;;;;;;11.65;6.35;;;;;;;11.43;65.94;101884.63;4978683;28;20116;-47
2021/11/23 09:04:07;;;;;;;11.95;6.65;;;;;;;11.78;65.64;101886.25;4983040;28;20133;-47
2021/11/23 09:06:38;;;;;;;13.00;6.03;;;;;;;12.14;64.74;101878.38;4975080;28;20140;-51
2021/11/23 09:09:08;;;;;;;9.88;5.70;;;;;;;12.64;64.17;101874.13;4977472;28;20454;-51
2021/11/23 09:11:36;;;;;;;11.43;5.40;;;;;;;13.22;64.09;101874.22;4980069;28;20683;-45
2021/11/23 09:14:04;;;;;;;10.95;6.70;;;;;;;13.94;62.63;101875.25;4963110;28;20061;-50
2021/11/23 09:16:34;;;;;;;9.57;5.82;;;;;;;14.67;60.85;101877.78;4979409;28;20050;-46
2021/11/23 09:19:03;;;;;;;9.13;5.88;;;;;;;15.35;59.67;101871.38;4976389;28;20153;-48
2021/11/23 09:21:29;;;;;;;8.68;5.85;;;;;;;16.00;58.62;101883.94;4980918;28;20046;-48
2021/11/23 09:23:56;;;;;;;9.70;5.05;;;;;;;16.61;57.10;101879.75;4973272;28;20050;-49
2021/11/23 09:26:24;;;;;;;9.32;4.85;;;;;;;17.11;55.50;101879.81;4960900;28;20773;-50
2021/11/23 09:28:51;;;;;;;8.18;5.20;;;;;;;17.54;53.80;101883.22;4979433;28;20066;-47
2021/11/23 09:31:19;;;;;;;6.90;4.32;;;;;;;17.85;52.92;101888.38;4977461;28;20447;-48
2021/11/23 09:33:46;;;;;;;7.68;4.25;;;;;;;18.07;52.15;101883.03;4979732;28;20506;-49
2021/11/23 09:36:12;;;;;;;6.47;4.13;;;;;;;18.30;51.36;101885.56;4972930;28;20058;-52
2021/11/23 09:38:40;;;;;;;7.43;4.45;;;;;;;18.50;50.32;101885.44;4976680;28;20101;-42
2021/11/23 09:41:07;;;;;;;7.00;3.92;;;;;;;18.61;50.11;101892.38;4978078;28;20117;-47
2021/11/23 09:43:35;;;;;;;7.40;4.53;;;;;;;18.67;49.44;101888.84;4981801;28;20050;-45
2021/11/23 09:46:03;;;;;;;10.05;4.28;;;;;;;18.70;47.95;101883.56;4977003;28;20050;-51
2021/11/23 09:48:29;;;;;;;8.88;3.47;;;;;;;18.72;48.02;101887.06;4979027;28;20082;-47
2021/11/23 09:50:56;;;;;;;6.57;3.95;;;;;;;18.61;47.39;101881.91;4981263;28;20758;-47
2021/11/23 09:53:24;;;;;;;8.10;4.05;;;;;;;18.68;47.24;101880.94;4975386;28;20062;-45
2021/11/23 09:55:53;;;;;;;6.70;3.83;;;;;;;18.66;47.01;101882.72;4979104;28;20073;-44
2021/11/23 09:58:21;;;;;;;6.90;3.70;;;;;;;18.47;46.28;101877.59;4975835;28;20104;-50
2021/11/23 10:00:50;;;;;;;5.32;3.72;;;;;;;18.55;46.36;101885.44;4974294;28;20102;-46
2021/11/23 10:03:29;;;;;;;7.18;4.15;;;;;;;18.68;46.67;101885.34;4975600;28;20038;-49
2021/11/23 10:06:14;;;;;;;8.52;4.20;;;;;;;18.97;44.48;101878.97;4975485;28;20169;-48
2021/11/23 10:08:44;;;;;;;8.02;3.92;;;;;;;19.26;45.47;101889.22;4978985;28;20455;-47
2021/11/23 10:11:19;;;;;;;6.93;4.40;;;;;;;19.25;45.00;101887.50;4977941;28;20749;-46
2021/11/23 10:13:50;;;;;;;7.22;4.10;;;;;;;19.25;44.15;101884.88;4976180;28;20487;-46
2021/11/23 10:16:18;;;;;;;7.97;4.05;;;;;;;19.00;44.39;101886.81;4979672;28;20073;-45
2021/11/23 10:18:51;;;;;;;8.98;5.03;;;;;;;19.08;44.61;101892.06;4979394;28;20054;-49
2021/11/23 10:21:24;;;;;;;7.40;4.30;;;;;;;19.23;44.50;101884.03;4974948;28;20081;-49
2021/11/23 10:23:55;;;;;;;8.65;4.65;;;;;;;19.05;43.64;101885.00;4973467;28;20053;-49
2021/11/23 10:26:27;;;;;;;14.63;8.68;;;;;;;18.43;42.71;101889.00;4979341;28;20407;-45
2021/11/23 10:28:58;;;;;;;29.42;16.10;;;;;;;17.30;44.98;101885.03;4975165;28;20054;-46
2021/11/23 10:31:31;;;;;;;13.20;7.82;;;;;;;16.45;46.12;101877.09;4977359;28;20065;-44
2021/11/23 10:34:03;;;;;;;7.88;4.47;;;;;;;15.85;47.33;101875.16;4975066;28;20050;-45
2021/11/23 10:36:32;;;;;;;7.40;4.45;;;;;;;15.23;49.17;101882.63;4981225;28;20053;-43
2021/11/23 10:39:18;;;;;;;7.88;4.43;;;;;;;14.36;49.51;101880.94;4979458;28;20049;-44
2021/11/23 10:41:51;;;;;;;8.23;4.20;;;;;;;13.82;51.46;101875.94;4978831;28;20050;-50
2021/11/23 10:44:35;;;;;;;6.65;3.60;;;;;;;13.60;52.16;101872.19;4980395;28;20614;-46
2021/11/23 10:47:07;;;;;;;8.40;3.83;;;;;;;13.53;52.23;101863.41;4975401;28;20549;-50
2021/11/23 10:49:43;;;;;;;;;;;;;;;13.06;52.52;101864.41;4976000;28;20050;-45
2021/11/23 10:52:36;;;;;;;6.78;4.28;;;;;;;12.80;53.91;101855.31;4978488;28;19933;-47
2021/11/23 10:55:24;;;;;;;10.30;4.18;;;;;;;12.59;54.89;101856.72;4977104;28;20545;-48
2021/11/23 10:57:54;;;;;;;6.65;3.63;;;;;;;12.33;55.36;101849.31;4983350;28;20437;-48
2021/11/23 11:00:22;;;;;;;;;;;;;;;11.82;56.95;101846.53;4975920;28;20050;-44
2021/11/23 11:02:52;;;;;;;4.72;2.40;;;;;;;11.72;57.79;101849.78;4977841;28;20380;-46
2021/11/23 11:05:20;;;;;;;8.77;4.72;;;;;;;11.66;57.81;101844.47;4974747;28;20107;-45
2021/11/23 11:07:47;;;;;;;6.40;3.00;;;;;;;11.51;57.38;101851.06;4987797;28;20487;-48
2021/11/23 11:10:14;;;;;;;7.95;4.10;;;;;;;11.51;57.34;101856.25;4977674;28;20162;-45
2021/11/23 11:12:41;;;;;;;7.13;3.63;;;;;;;11.29;58.41;101845.38;4981434;28;20051;-48
2021/11/23 11:15:12;;;;;;;8.65;3.72;;;;;;;11.05;58.88;101838.78;4984450;28;20191;-49
2021/11/23 11:17:40;;;;;;;7.78;3.90;;;;;;;10.93;58.99;101847.16;4974354;28;20046;-46
2021/11/23 11:20:09;;;;;;;7.05;3.80;;;;;;;10.88;59.06;101832.31;4970467;28;20054;-46
2021/11/23 11:22:55;;;;;;;5.43;3.25;;;;;;;10.74;60.18;101838.00;4970917;28;20062;-45
2021/11/23 11:25:27;;;;;;;8.18;3.72;;;;;;;10.66;59.66;101836.94;4966441;28;20046;-45
2021/11/23 11:27:54;;;;;;;6.13;3.13;;;;;;;10.65;60.45;101832.59;4976774;28;20054;-45
2021/11/23 11:30:37;;;;;;;8.15;4.22;;;;;;;10.65;60.80;101832.59;4980983;28;20109;-44